createdAt,value
2023-01-13T00:00:01.957Z,-4.78
2023-01-13T00:02:36.248Z,-4.83
2023-01-13T00:05:10.799Z,-4.86
2023-01-13T00:07:43.564Z,-4.84
2023-01-13T00:10:16.797Z,-4.88
2023-01-13T00:12:49.221Z,-4.86
2023-01-13T00:15:21.805Z,-4.87
2023-01-13T00:17:54.386Z,-4.84
2023-01-13T00:20:28.578Z,-4.83
2023-01-13T00:23:01.598Z,-4.87
2023-01-13T00:25:34.029Z,-4.85
2023-01-13T00:28:06.580Z,-4.87
2023-01-13T00:30:39.010Z,-4.93
2023-01-13T00:33:11.456Z,-4.85
2023-01-13T00:35:45.518Z,-4.88
2023-01-13T00:38:18.056Z,-4.84
2023-01-13T00:40:56.294Z,-4.87
2023-01-13T00:43:30.149Z,-4.83
2023-01-13T00:46:03.510Z,-4.86
2023-01-13T00:48:36.489Z,-4.83
2023-01-13T00:51:13.944Z,-4.82
2023-01-13T00:53:48.217Z,-4.87
2023-01-13T00:56:38.629Z,-4.79
2023-01-13T00:59:13.507Z,-4.75
2023-01-13T01:01:46.285Z,-4.76
2023-01-13T01:04:18.792Z,-4.75
2023-01-13T01:06:52.707Z,-4.78
2023-01-13T01:09:32.744Z,-4.76
2023-01-13T01:12:05.635Z,-4.76
2023-01-13T01:14:38.079Z,-4.78
2023-01-13T01:17:10.491Z,-4.74
2023-01-13T01:19:43.068Z,-4.73
2023-01-13T01:22:16.899Z,-4.71
2023-01-13T01:24:49.394Z,-4.71
2023-01-13T01:27:21.986Z,-4.68
2023-01-13T01:29:54.444Z,-4.69
2023-01-13T01:32:26.968Z,-4.66
2023-01-13T01:34:59.472Z,-4.65
2023-01-13T01:37:33.309Z,-4.65
2023-01-13T01:40:06.843Z,-4.65
2023-01-13T01:42:57.732Z,-4.66
2023-01-13T01:45:31.503Z,-4.63
2023-01-13T01:48:06.224Z,-4.65
2023-01-13T01:50:40.590Z,-4.66
2023-01-13T01:53:18.744Z,-4.66
2023-01-13T01:55:51.644Z,-4.64
2023-01-13T01:58:29.440Z,-4.62
2023-01-13T02:01:02.105Z,-4.68
2023-01-13T02:03:39.490Z,-4.63
2023-01-13T02:06:12.679Z,-4.62
2023-01-13T02:08:47.358Z,-4.61
2023-01-13T02:11:48.112Z,-4.60
2023-01-13T02:14:23.753Z,-4.60
2023-01-13T02:17:30.877Z,-4.61
2023-01-13T02:20:29.089Z,-4.64
2023-01-13T02:23:48.767Z,-4.60
2023-01-13T02:27:00.254Z,-4.62
2023-01-13T02:30:08.257Z,-4.63
2023-01-13T02:32:50.366Z,-4.63
2023-01-13T02:35:28.233Z,-4.68
2023-01-13T02:38:02.839Z,-4.62
2023-01-13T02:40:41.102Z,-4.67
2023-01-13T02:43:40.851Z,-4.60
2023-01-13T02:46:17.916Z,-4.60
2023-01-13T02:48:52.984Z,-4.60
2023-01-13T02:51:28.303Z,-4.65
2023-01-13T02:54:04.966Z,-4.62
2023-01-13T02:56:42.211Z,-4.61
2023-01-13T02:59:14.903Z,-4.56
2023-01-13T03:01:51.460Z,-4.56
2023-01-13T03:04:45.555Z,-4.54
2023-01-13T03:07:46.965Z,-4.58
2023-01-13T03:10:48.115Z,-4.60
2023-01-13T03:13:46.047Z,-4.52
2023-01-13T03:16:27.421Z,-4.51
2023-01-13T03:19:15.014Z,-4.51
2023-01-13T03:21:53.655Z,-4.50
2023-01-13T03:24:30.783Z,-4.53
2023-01-13T03:27:11.133Z,-4.48
2023-01-13T03:29:49.820Z,-4.46
2023-01-13T03:32:27.444Z,-4.45
2023-01-13T03:35:07.913Z,-4.48
2023-01-13T03:37:57.449Z,-4.47
2023-01-13T03:40:33.892Z,-4.44
2023-01-13T03:43:32.026Z,-4.43
2023-01-13T03:46:14.202Z,-4.43
2023-01-13T03:48:49.605Z,-4.41
2023-01-13T03:51:28.556Z,-4.42
2023-01-13T03:54:05.192Z,-4.39
2023-01-13T03:56:41.509Z,-4.41
2023-01-13T03:59:19.506Z,-4.40
2023-01-13T04:01:57.711Z,-4.44
2023-01-13T04:04:34.782Z,-4.39
2023-01-13T04:07:17.134Z,-4.38
2023-01-13T04:09:52.905Z,-4.38
2023-01-13T04:12:28.729Z,-4.42
2023-01-13T04:15:01.469Z,-4.36
2023-01-13T04:17:35.864Z,-4.35
2023-01-13T04:20:09.466Z,-4.35
2023-01-13T04:22:43.473Z,-4.34
2023-01-13T04:25:15.942Z,-4.34
2023-01-13T04:27:48.344Z,-4.33
2023-01-13T04:30:21.007Z,-4.34
2023-01-13T04:32:53.516Z,-4.32
2023-01-13T04:35:26.049Z,-4.30
2023-01-13T04:38:00.969Z,-4.30
2023-01-13T04:40:33.786Z,-4.29
2023-01-13T04:43:06.740Z,-4.30
2023-01-13T04:45:39.231Z,-4.30
2023-01-13T04:48:12.189Z,-4.31
2023-01-13T04:50:44.683Z,-4.30
2023-01-13T04:53:21.692Z,-4.30
2023-01-13T04:55:54.268Z,-4.30
2023-01-13T04:58:26.803Z,-4.29
2023-01-13T05:00:59.289Z,-4.33
2023-01-13T05:03:32.002Z,-4.31
2023-01-13T05:06:04.717Z,-4.33
2023-01-13T05:08:38.787Z,-4.27
2023-01-13T05:11:29.902Z,-4.27
2023-01-13T05:14:20.894Z,-4.27
2023-01-13T05:17:01.563Z,-4.28
2023-01-13T05:19:36.355Z,-4.27
2023-01-13T05:22:27.543Z,-4.33
2023-01-13T05:25:19.945Z,-4.28
2023-01-13T05:27:53.869Z,-4.29
2023-01-13T05:30:29.894Z,-4.26
2023-01-13T05:33:02.452Z,-4.26
2023-01-13T05:35:34.927Z,-4.25
2023-01-13T05:38:07.630Z,-4.24
2023-01-13T05:41:00.632Z,-4.24
2023-01-13T05:43:34.892Z,-4.24
2023-01-13T05:46:09.295Z,-4.30
2023-01-13T05:48:43.225Z,-4.22
2023-01-13T05:51:15.899Z,-4.22
2023-01-13T05:53:48.649Z,-4.22
2023-01-13T05:56:25.626Z,-4.21
2023-01-13T05:58:58.072Z,-4.20
2023-01-13T06:01:30.766Z,-4.25
2023-01-13T06:04:03.420Z,-4.23
2023-01-13T06:06:38.628Z,-4.21
2023-01-13T06:09:11.200Z,-4.22
2023-01-13T06:11:45.250Z,-4.19
2023-01-13T06:14:20.631Z,-4.18
2023-01-13T06:16:53.208Z,-4.23
2023-01-13T06:19:25.873Z,-4.24
2023-01-13T06:21:58.732Z,-4.16
2023-01-13T06:24:31.304Z,-4.15
2023-01-13T06:27:06.349Z,-4.17
2023-01-13T06:29:39.092Z,-4.18
2023-01-13T06:32:16.659Z,-4.14
2023-01-13T06:34:53.572Z,-4.19
2023-01-13T06:37:28.839Z,-4.20
2023-01-13T06:40:03.378Z,-4.12
2023-01-13T06:42:57.983Z,-4.10
2023-01-13T06:45:31.845Z,-4.08
2023-01-13T06:48:05.000Z,-4.08
2023-01-13T06:50:37.630Z,-4.06
2023-01-13T06:53:10.149Z,-4.04
2023-01-13T06:55:42.910Z,-4.03
2023-01-13T06:58:17.073Z,-4.03
2023-01-13T07:00:51.647Z,-4.00
2023-01-13T07:03:24.550Z,-3.99
2023-01-13T07:06:00.024Z,-3.99
2023-01-13T07:08:32.670Z,-4.02
2023-01-13T07:11:05.790Z,-4.05
2023-01-13T07:13:58.107Z,-3.96
2023-01-13T07:16:30.663Z,-3.96
2023-01-13T07:19:03.403Z,-4.06
2023-01-13T07:21:36.066Z,-3.94
2023-01-13T07:24:08.895Z,-3.93
2023-01-13T07:26:41.403Z,-4.08
2023-01-13T07:29:15.535Z,-3.92
2023-01-13T07:31:50.109Z,-3.96
2023-01-13T07:34:23.003Z,-3.96
2023-01-13T07:36:55.591Z,-3.87
2023-01-13T07:39:28.480Z,-3.86
2023-01-13T07:42:19.773Z,-3.87
2023-01-13T07:44:53.809Z,-3.82
2023-01-13T07:47:26.412Z,-3.89
2023-01-13T07:49:58.967Z,-3.82
2023-01-13T07:52:32.023Z,-3.85
2023-01-13T07:55:05.557Z,-3.83
2023-01-13T07:57:38.277Z,-3.81
2023-01-13T08:00:13.748Z,-3.80
2023-01-13T08:02:47.820Z,-3.79
2023-01-13T08:05:20.731Z,-3.79
2023-01-13T08:07:53.455Z,-3.78
2023-01-13T08:10:28.551Z,-3.83
2023-01-13T08:13:20.381Z,-3.75
2023-01-13T08:16:02.812Z,-3.75
2023-01-13T08:18:35.824Z,-3.73
2023-01-13T08:21:10.543Z,-3.72
2023-01-13T08:23:44.513Z,-3.71
2023-01-13T08:26:18.728Z,-3.70
2023-01-13T08:28:51.337Z,-3.66
2023-01-13T08:31:25.590Z,-3.67
2023-01-13T08:33:58.167Z,-3.60
2023-01-13T08:36:30.652Z,-3.59
2023-01-13T08:39:06.663Z,-3.56
2023-01-13T08:41:58.919Z,-3.54
2023-01-13T08:44:34.365Z,-3.62
2023-01-13T08:47:10.168Z,-3.55
2023-01-13T08:49:46.492Z,-3.58
2023-01-13T08:52:19.369Z,-3.55
2023-01-13T08:54:51.888Z,-3.57
2023-01-13T08:57:24.816Z,-3.61
2023-01-13T08:59:57.498Z,-3.53
2023-01-13T09:02:31.493Z,-3.66
2023-01-13T09:05:04.774Z,-3.53
2023-01-13T09:07:38.754Z,-3.53
2023-01-13T09:10:11.580Z,-3.51
2023-01-13T09:13:03.406Z,-3.50
2023-01-13T09:15:36.172Z,-3.48
2023-01-13T09:18:10.275Z,-3.47
2023-01-13T09:20:42.812Z,-3.48
2023-01-13T09:23:15.373Z,-3.49
2023-01-13T09:25:49.332Z,-3.45
2023-01-13T09:28:21.863Z,-3.43
2023-01-13T09:30:54.323Z,-3.41
2023-01-13T09:33:46.661Z,-3.41
2023-01-13T09:36:19.681Z,-3.40
2023-01-13T09:38:52.271Z,-3.41
2023-01-13T09:41:45.546Z,-3.38
2023-01-13T09:44:22.723Z,-3.35
2023-01-13T09:47:00.855Z,-3.34
2023-01-13T09:49:39.055Z,-3.32
2023-01-13T09:52:16.131Z,-3.32
2023-01-13T09:54:54.982Z,-3.32
2023-01-13T09:57:30.832Z,-3.29
2023-01-13T10:00:10.932Z,-3.35
2023-01-13T10:03:15.623Z,-3.28
2023-01-13T10:06:00.152Z,-3.30
2023-01-13T10:08:34.743Z,-3.26
2023-01-13T10:11:32.199Z,-3.25
2023-01-13T10:14:14.992Z,-3.23
2023-01-13T10:16:54.855Z,-3.27
2023-01-13T10:19:33.631Z,-3.23
2023-01-13T10:22:28.868Z,-3.22
2023-01-13T10:25:27.214Z,-3.21
2023-01-13T10:28:08.326Z,-3.19
2023-01-13T10:30:42.244Z,-3.17
2023-01-13T10:33:17.794Z,-3.14
2023-01-13T10:35:54.188Z,-3.11
2023-01-13T10:38:30.541Z,-3.10
2023-01-13T10:41:05.130Z,-3.08
2023-01-13T10:43:37.668Z,-3.09
2023-01-13T10:46:12.672Z,-3.07
2023-01-13T10:48:53.048Z,-3.07
2023-01-13T10:51:27.831Z,-3.08
2023-01-13T10:54:03.515Z,-3.10
2023-01-13T10:56:36.139Z,-3.07
2023-01-13T10:59:22.730Z,-3.08
2023-01-13T11:02:01.151Z,-3.08
2023-01-13T11:04:37.804Z,-3.07
2023-01-13T11:07:25.814Z,-3.13
2023-01-13T11:10:17.335Z,-3.07
2023-01-13T11:13:02.662Z,-3.04
2023-01-13T11:15:41.417Z,-3.04
2023-01-13T11:18:22.606Z,-3.03
2023-01-13T11:20:57.769Z,-3.05
2023-01-13T11:23:35.554Z,-3.06
2023-01-13T11:26:14.946Z,-3.05
2023-01-13T11:28:55.774Z,-3.05
2023-01-13T11:31:34.050Z,-3.07
2023-01-13T11:34:14.345Z,-3.00
2023-01-13T11:36:50.927Z,-2.97
2023-01-13T11:39:28.116Z,-2.96
2023-01-13T11:42:24.345Z,-2.95
2023-01-13T11:45:07.425Z,-2.96
2023-01-13T11:47:40.144Z,-3.06
2023-01-13T11:50:19.378Z,-2.96
2023-01-13T11:53:07.806Z,-2.98
2023-01-13T11:55:49.746Z,-3.00
2023-01-13T11:58:50.995Z,-3.07
2023-01-13T12:01:37.216Z,-3.03
2023-01-13T12:04:24.447Z,-2.99
2023-01-13T12:07:12.787Z,-2.97
2023-01-13T12:09:59.675Z,-2.99
2023-01-13T12:12:44.169Z,-2.96
2023-01-13T12:15:54.679Z,-2.97
2023-01-13T12:18:42.228Z,-3.00
2023-01-13T12:21:23.723Z,-2.98
2023-01-13T12:24:05.174Z,-3.02
2023-01-13T12:26:42.817Z,-3.06
2023-01-13T12:29:19.515Z,-3.03
2023-01-13T12:31:53.882Z,-3.00
2023-01-13T12:34:37.347Z,-2.98
2023-01-13T12:37:15.086Z,-3.06
2023-01-13T12:39:59.590Z,-2.98
2023-01-13T12:43:00.922Z,-2.97
2023-01-13T12:45:34.390Z,-2.97
2023-01-13T12:48:45.593Z,-3.00
2023-01-13T12:51:23.425Z,-2.97
2023-01-13T12:53:56.652Z,-2.96
2023-01-13T12:56:42.229Z,-2.94
2023-01-13T12:59:36.928Z,-2.94
2023-01-13T13:02:35.216Z,-2.92
2023-01-13T13:05:49.599Z,-2.93
2023-01-13T13:08:32.445Z,-2.93
2023-01-13T13:11:39.757Z,-2.97
2023-01-13T13:14:13.734Z,-2.94
2023-01-13T13:16:51.223Z,-2.93
2023-01-13T13:19:49.135Z,-2.92
2023-01-13T13:22:50.836Z,-2.91
2023-01-13T13:25:28.055Z,-2.92
2023-01-13T13:28:19.861Z,-2.95
2023-01-13T13:31:17.479Z,-2.91
2023-01-13T13:34:21.293Z,-2.91
2023-01-13T13:37:18.474Z,-2.89
2023-01-13T13:40:09.987Z,-2.88
2023-01-13T13:43:07.351Z,-2.86
2023-01-13T13:46:09.162Z,-2.88
2023-01-13T13:48:50.970Z,-2.94
2023-01-13T13:51:29.472Z,-2.85
2023-01-13T13:54:03.052Z,-2.90
2023-01-13T13:56:42.549Z,-2.89
2023-01-13T13:59:19.779Z,-2.81
2023-01-13T14:02:01.909Z,-2.80
2023-01-13T14:04:37.657Z,-2.80
2023-01-13T14:07:23.844Z,-2.79
2023-01-13T14:09:57.377Z,-2.79
2023-01-13T14:12:38.340Z,-2.85
2023-01-13T14:15:31.508Z,-2.80
2023-01-13T14:18:07.069Z,-2.76
2023-01-13T14:20:40.682Z,-2.77
2023-01-13T14:23:18.147Z,-2.76
2023-01-13T14:25:52.146Z,-2.77
2023-01-13T14:28:28.613Z,-2.79
2023-01-13T14:31:04.268Z,-2.76
2023-01-13T14:33:39.257Z,-2.74
2023-01-13T14:36:18.079Z,-2.75
2023-01-13T14:39:12.209Z,-2.81
2023-01-13T14:41:51.013Z,-2.79
2023-01-13T14:44:27.121Z,-2.69
2023-01-13T14:47:03.268Z,-2.75
2023-01-13T14:49:39.631Z,-2.69
2023-01-13T14:52:16.348Z,-2.69
2023-01-13T14:54:51.205Z,-2.67
2023-01-13T14:57:26.075Z,-2.67
2023-01-13T15:00:02.695Z,-2.66
2023-01-13T15:02:44.023Z,-2.65
2023-01-13T15:05:34.718Z,-2.74
2023-01-13T15:08:22.543Z,-2.65
2023-01-13T15:11:01.180Z,-2.65
2023-01-13T15:13:39.800Z,-2.65
2023-01-13T15:16:20.688Z,-2.64
2023-01-13T15:18:55.688Z,-2.70
2023-01-13T15:21:28.178Z,-2.62
2023-01-13T15:24:00.889Z,-2.62
2023-01-13T15:26:34.362Z,-2.61
2023-01-13T15:29:13.023Z,-2.59
2023-01-13T15:31:45.447Z,-2.59
2023-01-13T15:34:19.313Z,-2.63
2023-01-13T15:36:51.949Z,-2.58
2023-01-13T15:39:24.453Z,-2.58
2023-01-13T15:42:15.885Z,-2.56
2023-01-13T15:45:07.350Z,-2.58
2023-01-13T15:47:39.916Z,-2.56
2023-01-13T15:50:16.551Z,-2.57
2023-01-13T15:52:49.373Z,-2.56
2023-01-13T15:55:21.829Z,-2.59
2023-01-13T15:57:54.618Z,-2.64
2023-01-13T16:00:27.345Z,-2.54
2023-01-13T16:03:00.198Z,-2.53
2023-01-13T16:05:34.129Z,-2.61
2023-01-13T16:08:13.949Z,-2.54
2023-01-13T16:10:47.446Z,-2.54
2023-01-13T16:13:20.122Z,-2.60
2023-01-13T16:15:53.346Z,-2.53
2023-01-13T16:18:26.530Z,-2.53
2023-01-13T16:21:00.557Z,-2.59
2023-01-13T16:23:33.060Z,-2.54
2023-01-13T16:26:06.217Z,-2.52
2023-01-13T16:28:39.072Z,-2.53
2023-01-13T16:31:21.910Z,-2.53
2023-01-13T16:33:54.661Z,-2.45
2023-01-13T16:36:30.016Z,-2.44
2023-01-13T16:39:05.699Z,-2.50
2023-01-13T16:41:38.473Z,-2.44
2023-01-13T16:44:10.891Z,-2.41
2023-01-13T16:46:47.581Z,-2.40
2023-01-13T16:49:20.142Z,-2.43
2023-01-13T16:51:56.237Z,-2.40
2023-01-13T16:54:28.811Z,-2.41
2023-01-13T16:57:01.301Z,-2.41
2023-01-13T16:59:34.021Z,-2.41
2023-01-13T17:02:13.601Z,-2.42
2023-01-13T17:04:46.237Z,-2.39
2023-01-13T17:07:20.317Z,-2.40
2023-01-13T17:09:52.945Z,-2.42
2023-01-13T17:12:25.418Z,-2.39
2023-01-13T17:14:58.010Z,-2.40
2023-01-13T17:17:30.791Z,-2.39
2023-01-13T17:20:03.680Z,-2.43
2023-01-13T17:22:38.153Z,-2.38
2023-01-13T17:25:13.061Z,-2.37
2023-01-13T17:27:45.610Z,-2.37
2023-01-13T17:30:19.554Z,-2.39
2023-01-13T17:32:52.316Z,-2.36
2023-01-13T17:35:25.488Z,-2.35
2023-01-13T17:37:59.409Z,-2.34
2023-01-13T17:40:36.807Z,-2.47
2023-01-13T17:43:09.607Z,-2.33
2023-01-13T17:45:42.198Z,-2.33
2023-01-13T17:48:14.904Z,-2.34
2023-01-13T17:50:48.080Z,-2.39
2023-01-13T17:53:22.561Z,-2.29
2023-01-13T17:55:56.000Z,-2.28
2023-01-13T17:58:28.585Z,-2.32
2023-01-13T18:01:01.304Z,-2.31
2023-01-13T18:03:34.234Z,-2.36
2023-01-13T18:06:09.416Z,-2.50
2023-01-13T18:08:43.664Z,-2.25
2023-01-13T18:11:21.334Z,-2.24
2023-01-13T18:13:56.651Z,-2.31
2023-01-13T18:16:30.805Z,-2.25
2023-01-13T18:19:22.177Z,-2.25
2023-01-13T18:22:13.316Z,-2.26
2023-01-13T18:25:05.615Z,-2.23
2023-01-13T18:27:41.948Z,-2.23
2023-01-13T18:30:15.346Z,-2.21
2023-01-13T18:32:48.124Z,-2.21
2023-01-13T18:35:20.714Z,-2.19
2023-01-13T18:37:53.487Z,-2.19
2023-01-13T18:40:27.852Z,-2.29
2023-01-13T18:43:03.469Z,-2.16
2023-01-13T18:45:36.394Z,-2.21
2023-01-13T18:48:08.926Z,-2.17
2023-01-13T18:50:41.446Z,-2.19
2023-01-13T18:53:14.202Z,-2.15
2023-01-13T18:55:48.126Z,-2.15
2023-01-13T18:58:20.821Z,-2.15
2023-01-13T19:01:01.250Z,-2.14
2023-01-13T19:03:34.131Z,-2.13
2023-01-13T19:06:11.926Z,-2.14
2023-01-13T19:08:45.146Z,-2.10
2023-01-13T19:11:20.345Z,-2.10
2023-01-13T19:13:53.345Z,-2.10
2023-01-13T19:16:26.004Z,-2.15
2023-01-13T19:18:59.906Z,-2.10
2023-01-13T19:21:32.419Z,-2.12
2023-01-13T19:24:05.667Z,-2.06
2023-01-13T19:26:39.849Z,-2.07
2023-01-13T19:29:12.514Z,-2.08
2023-01-13T19:31:45.059Z,-2.09
2023-01-13T19:34:18.147Z,-2.09
2023-01-13T19:36:52.683Z,-2.08
2023-01-13T19:39:25.326Z,-2.09
2023-01-13T19:42:17.673Z,-2.09
2023-01-13T19:45:08.836Z,-2.25
2023-01-13T19:47:41.661Z,-2.05
2023-01-13T19:50:14.662Z,-2.13
2023-01-13T19:52:47.379Z,-2.19
2023-01-13T19:55:20.067Z,-2.01
2023-01-13T19:57:54.068Z,-2.01
2023-01-13T20:00:26.637Z,-2.00
2023-01-13T20:03:03.608Z,-2.03
2023-01-13T20:05:36.107Z,-1.97
2023-01-13T20:08:08.887Z,-1.99
2023-01-13T20:10:43.101Z,-2.00
2023-01-13T20:13:17.026Z,-1.97
2023-01-13T20:15:49.794Z,-1.96
2023-01-13T20:18:22.834Z,-2.00
2023-01-13T20:20:55.771Z,-1.94
2023-01-13T20:23:29.177Z,-1.96
2023-01-13T20:26:02.690Z,-1.92
2023-01-13T20:28:38.951Z,-1.90
2023-01-13T20:31:15.329Z,-1.90
2023-01-13T20:33:50.006Z,-1.89
2023-01-13T20:36:27.618Z,-1.96
2023-01-13T20:39:01.288Z,-1.88
2023-01-13T20:41:52.483Z,-1.86
2023-01-13T20:44:26.733Z,-1.87
2023-01-13T20:46:59.519Z,-1.86
2023-01-13T20:49:32.329Z,-1.85
2023-01-13T20:52:09.783Z,-1.85
2023-01-13T20:54:42.415Z,-1.83
2023-01-13T20:57:14.976Z,-1.81
2023-01-13T20:59:49.135Z,-1.82
2023-01-13T21:02:23.450Z,-1.80
2023-01-13T21:04:56.145Z,-1.82
2023-01-13T21:07:28.755Z,-1.81
2023-01-13T21:10:01.244Z,-1.80
2023-01-13T21:12:54.179Z,-1.81
2023-01-13T21:15:31.012Z,-1.79
2023-01-13T21:18:22.081Z,-1.84
2023-01-13T21:21:11.710Z,-1.81
2023-01-13T21:23:47.258Z,-1.80
2023-01-13T21:26:20.287Z,-1.82
2023-01-13T21:28:57.392Z,-1.79
2023-01-13T21:31:31.359Z,-1.77
2023-01-13T21:34:08.408Z,-1.77
2023-01-13T21:36:41.317Z,-1.94
2023-01-13T21:39:15.627Z,-1.74
2023-01-13T21:42:06.757Z,-1.75
2023-01-13T21:44:57.944Z,-1.82
2023-01-13T21:47:49.804Z,-1.77
2023-01-13T21:50:25.562Z,-1.75
2023-01-13T21:52:58.694Z,-1.77
2023-01-13T21:55:32.661Z,-1.79
2023-01-13T21:58:12.892Z,-1.72
2023-01-13T22:00:46.273Z,-1.77
2023-01-13T22:03:23.356Z,-1.70
2023-01-13T22:05:56.708Z,-1.68
2023-01-13T22:08:29.375Z,-1.68
2023-01-13T22:11:02.981Z,-1.67
2023-01-13T22:13:54.093Z,-1.67
2023-01-13T22:16:26.917Z,-1.66
2023-01-13T22:19:01.231Z,-1.68
2023-01-13T22:21:33.989Z,-1.71
2023-01-13T22:24:07.296Z,-1.62
2023-01-13T22:26:40.232Z,-1.61
2023-01-13T22:29:12.893Z,-1.61
2023-01-13T22:31:45.467Z,-1.62
2023-01-13T22:34:19.593Z,-1.64
2023-01-13T22:36:52.280Z,-1.59
2023-01-13T22:39:24.743Z,-1.58
2023-01-13T22:41:57.324Z,-1.62
2023-01-13T22:44:29.900Z,-1.59
2023-01-13T22:47:02.333Z,-1.57
2023-01-13T22:49:36.297Z,-1.57
2023-01-13T22:52:08.956Z,-1.56
2023-01-13T22:54:41.598Z,-1.58
2023-01-13T22:57:14.363Z,-1.55
2023-01-13T22:59:47.617Z,-1.56
2023-01-13T23:02:20.204Z,-1.54
2023-01-13T23:04:54.226Z,-1.61
2023-01-13T23:07:26.789Z,-1.56
2023-01-13T23:09:59.258Z,-1.53
2023-01-13T23:12:31.737Z,-1.54
2023-01-13T23:15:05.369Z,-1.53
2023-01-13T23:17:37.932Z,-1.54
2023-01-13T23:20:12.316Z,-1.51
2023-01-13T23:22:45.213Z,-1.51
2023-01-13T23:25:17.832Z,-1.54
2023-01-13T23:27:50.276Z,-1.50
2023-01-13T23:30:22.695Z,-1.50
2023-01-13T23:32:55.165Z,-1.53
2023-01-13T23:35:28.974Z,-1.56
2023-01-13T23:38:01.464Z,-1.52
2023-01-13T23:40:34.537Z,-1.55
2023-01-13T23:43:06.969Z,-1.54
2023-01-13T23:45:39.521Z,-1.54
2023-01-13T23:48:14.230Z,-1.59
2023-01-13T23:50:58.797Z,-1.54
2023-01-13T23:53:33.598Z,-1.56
2023-01-13T23:56:10.392Z,-1.53
2023-01-13T23:58:43.818Z,-1.50
